Time,TemperatureF,DewpointF,PressureIn,WindDirection,WindDirectionDegrees,WindSpeedMPH,WindSpeedGustMPH,Humidity,HourlyPrecipIn,Conditions,Clouds,dailyrainin,SoftwareType,DateUTC
2013-01-20 00:02:00,27.0,19.0,-100.00,SW,216,0.0,5.0,70,-99.99,,,-99.99,,2013-01-20 09:02:00,
2013-01-20 00:22:00,27.0,18.0,-100.00,South,190,3.0,8.0,69,-99.99,,,-99.99,,2013-01-20 09:22:00,
2013-01-20 00:33:00,27.0,20.0,-100.00,SW,215,7.0,11.0,74,-99.99,,,-99.99,,2013-01-20 09:33:00,
2013-01-20 00:52:00,27.0,19.0,-100.00,South,176,3.0,9.0,72,-99.99,,,-99.99,,2013-01-20 09:52:00,
2013-01-20 01:02:00,26.0,19.0,-100.00,SW,221,4.0,9.0,76,-99.99,,,-99.99,,2013-01-20 10:02:00,
2013-01-20 01:22:00,26.0,19.0,-100.00,West,269,2.0,11.0,74,-99.99,,,-99.99,,2013-01-20 10:22:00,
2013-01-20 01:42:00,26.0,19.0,-100.00,West,269,2.0,11.0,74,-99.99,,,-99.99,,2013-01-20 10:42:00,
2013-01-20 01:52:00,26.0,20.0,-100.00,South,180,1.0,8.0,78,-99.99,,,-99.99,,2013-01-20 10:52:00,
2013-01-20 02:02:00,26.0,20.0,-100.00,ENE,57,5.0,8.0,78,-99.99,,,-99.99,,2013-01-20 11:02:00,
2013-01-20 02:12:00,26.0,20.0,-100.00,ENE,57,5.0,8.0,78,-99.99,,,-99.99,,2013-01-20 11:12:00,
2013-01-20 02:22:00,29.0,22.0,-100.00,WSW,250,5.0,9.0,75,-99.99,,,-99.99,,2013-01-20 11:22:00,
2013-01-20 02:32:00,31.0,22.0,-100.00,South,169,4.0,19.0,69,-99.99,,,-99.99,,2013-01-20 11:32:00,
2013-01-20 02:42:00,31.0,22.0,-100.00,South,169,4.0,19.0,69,-99.99,,,-99.99,,2013-01-20 11:42:00,
2013-01-20 02:53:00,30.0,21.0,-100.00,East,81,3.0,16.0,69,-99.99,,,-99.99,,2013-01-20 11:53:00,
2013-01-20 03:02:00,29.0,21.0,-100.00,ESE,123,9.0,24.0,71,-99.99,,,-99.99,,2013-01-20 12:02:00,
2013-01-20 03:12:00,29.0,21.0,-100.00,ESE,123,9.0,24.0,71,-99.99,,,-99.99,,2013-01-20 12:12:00,
2013-01-20 03:22:00,29.0,21.0,-100.00,East,87,8.0,27.0,72,-99.99,,,-99.99,,2013-01-20 12:22:00,
2013-01-20 03:33:00,32.0,25.0,-100.00,SE,128,13.0,40.0,74,-99.99,,,-99.99,,2013-01-20 12:33:00,
2013-01-20 03:43:00,32.0,25.0,-100.00,SE,128,13.0,40.0,74,-99.99,,,-99.99,,2013-01-20 12:43:00,
2013-01-20 03:52:00,31.0,25.0,-100.00,ESE,113,21.0,45.0,78,-99.99,,,-99.99,,2013-01-20 12:52:00,
2013-01-20 04:02:00,31.0,24.0,-100.00,ESE,121,18.0,43.0,76,-99.99,,,-99.99,,2013-01-20 13:02:00,
2013-01-20 04:12:00,31.0,24.0,-100.00,ESE,121,18.0,43.0,76,-99.99,,,-99.99,,2013-01-20 13:12:00,
2013-01-20 04:22:00,31.0,25.0,-100.00,ESE,110,22.0,49.0,77,-99.99,,,-99.99,,2013-01-20 13:22:00,
2013-01-20 04:33:00,31.0,25.0,-100.00,ESE,108,19.0,43.0,79,-99.99,,,-99.99,,2013-01-20 13:33:00,
2013-01-20 04:42:00,31.0,25.0,-100.00,ESE,108,19.0,43.0,79,-99.99,,,-99.99,,2013-01-20 13:42:00,
2013-01-20 04:52:00,31.0,25.0,-100.00,ESE,114,20.0,50.0,78,-99.99,,,-99.99,,2013-01-20 13:52:00,
2013-01-20 05:02:00,31.0,25.0,-100.00,ESE,114,20.0,50.0,78,-99.99,,,-99.99,,2013-01-20 14:02:00,
2013-01-20 05:12:00,31.0,25.0,-100.00,ESE,114,20.0,50.0,78,-99.99,,,-99.99,,2013-01-20 14:12:00,
2013-01-20 05:22:00,32.0,26.0,-100.00,ESE,116,25.0,51.0,78,-99.99,,,-99.99,,2013-01-20 14:22:00,
2013-01-20 05:32:00,31.0,26.0,-100.00,ESE,118,25.0,57.0,81,-99.99,,,-99.99,,2013-01-20 14:32:00,
2013-01-20 05:42:00,31.0,26.0,-100.00,ESE,118,25.0,57.0,81,-99.99,,,-99.99,,2013-01-20 14:42:00,
2013-01-20 05:52:00,31.0,26.0,-100.00,ESE,113,21.0,52.0,82,-99.99,,,-99.99,,2013-01-20 14:52:00,
2013-01-20 06:03:00,31.0,26.0,-100.00,ESE,114,24.0,55.0,81,-99.99,,,-99.99,,2013-01-20 15:03:00,
2013-01-20 06:12:00,31.0,26.0,-100.00,ESE,114,24.0,55.0,81,-99.99,,,-99.99,,2013-01-20 15:12:00,
2013-01-20 06:22:00,31.0,26.0,-100.00,ESE,109,21.0,49.0,81,-99.99,,,-99.99,,2013-01-20 15:22:00,
2013-01-20 06:33:00,31.0,27.0,-100.00,ESE,117,21.0,45.0,84,-99.99,,,-99.99,,2013-01-20 15:33:00,
2013-01-20 06:42:00,31.0,27.0,-100.00,ESE,117,21.0,45.0,84,-99.99,,,-99.99,,2013-01-20 15:42:00,
2013-01-20 06:52:00,31.0,26.0,-100.00,ESE,122,19.0,46.0,83,-99.99,,,-99.99,,2013-01-20 15:52:00,
2013-01-20 07:02:00,31.0,26.0,-100.00,ESE,119,20.0,48.0,83,-99.99,,,-99.99,,2013-01-20 16:02:00,
2013-01-20 07:12:00,31.0,26.0,-100.00,ESE,119,20.0,48.0,83,-99.99,,,-99.99,,2013-01-20 16:12:00,
2013-01-20 07:22:00,32.0,27.0,-100.00,SE,130,17.0,40.0,81,-99.99,,,-99.99,,2013-01-20 16:22:00,
2013-01-20 07:33:00,32.0,26.0,-100.00,SSE,156,19.0,43.0,77,-99.99,,,-99.99,,2013-01-20 16:33:00,
2013-01-20 07:42:00,32.0,26.0,-100.00,SSE,156,19.0,43.0,77,-99.99,,,-99.99,,2013-01-20 16:42:00,
2013-01-20 07:52:00,32.0,25.0,-100.00,SE,146,17.0,45.0,76,-99.99,,,-99.99,,2013-01-20 16:52:00,
2013-01-20 08:02:00,32.0,27.0,-100.00,SSE,160,12.0,36.0,82,-99.99,,,-99.99,,2013-01-20 17:02:00,
2013-01-20 08:12:00,32.0,27.0,-100.00,SSE,160,12.0,36.0,82,-99.99,,,-99.99,,2013-01-20 17:12:00,
2013-01-20 08:22:00,32.0,26.0,-100.00,SSE,152,19.0,38.0,78,-99.99,,,-99.99,,2013-01-20 17:22:00,
2013-01-20 08:32:00,32.0,25.0,-100.00,South,182,11.0,37.0,76,-99.99,,,-99.99,,2013-01-20 17:32:00,
2013-01-20 08:42:00,32.0,25.0,-100.00,South,182,11.0,37.0,76,-99.99,,,-99.99,,2013-01-20 17:42:00,
2013-01-20 08:52:00,33.0,26.0,-100.00,South,169,13.0,35.0,74,-99.99,,,-99.99,,2013-01-20 17:52:00,
2013-01-20 09:02:00,33.0,26.0,-100.00,South,169,13.0,35.0,74,-99.99,,,-99.99,,2013-01-20 18:02:00,
2013-01-20 09:12:00,33.0,26.0,-100.00,South,169,13.0,35.0,74,-99.99,,,-99.99,,2013-01-20 18:12:00,
2013-01-20 09:23:00,33.0,26.0,-100.00,SSE,148,9.0,25.0,74,-99.99,,,-99.99,,2013-01-20 18:23:00,
2013-01-20 09:33:00,33.0,27.0,-100.00,SSE,167,6.0,29.0,77,-99.99,,,-99.99,,2013-01-20 18:33:00,
2013-01-20 09:42:00,33.0,27.0,-100.00,SSE,167,6.0,29.0,77,-99.99,,,-99.99,,2013-01-20 18:42:00,
2013-01-20 09:52:00,33.0,25.0,-100.00,ESE,103,4.0,26.0,73,-99.99,,,-99.99,,2013-01-20 18:52:00,
2013-01-20 10:02:00,33.0,25.0,-100.00,NW,309,6.0,21.0,73,-99.99,,,-99.99,,2013-01-20 19:02:00,
2013-01-20 10:12:00,33.0,25.0,-100.00,NW,309,6.0,21.0,73,-99.99,,,-99.99,,2013-01-20 19:12:00,
2013-01-20 10:22:00,33.0,26.0,-100.00,NNE,20,3.0,15.0,76,-99.99,,,-99.99,,2013-01-20 19:22:00,
2013-01-20 10:33:00,33.0,27.0,-100.00,NE,52,4.0,15.0,78,-99.99,,,-99.99,,2013-01-20 19:33:00,
2013-01-20 10:42:00,33.0,27.0,-100.00,NE,52,4.0,15.0,78,-99.99,,,-99.99,,2013-01-20 19:42:00,
2013-01-20 10:52:00,32.0,26.0,-100.00,SE,124,6.0,15.0,78,-99.99,,,-99.99,,2013-01-20 19:52:00,
2013-01-20 11:02:00,32.0,27.0,-100.00,NNW,331,5.0,13.0,82,-99.99,,,-99.99,,2013-01-20 20:02:00,
2013-01-20 11:12:00,32.0,27.0,-100.00,NNW,331,5.0,13.0,82,-99.99,,,-99.99,,2013-01-20 20:12:00,
2013-01-20 11:22:00,32.0,27.0,-100.00,NW,306,2.0,10.0,81,-99.99,,,-99.99,,2013-01-20 20:22:00,
2013-01-20 11:33:00,32.0,27.0,-100.00,West,274,5.0,10.0,83,-99.99,,,-99.99,,2013-01-20 20:33:00,
2013-01-20 11:42:00,32.0,27.0,-100.00,West,274,5.0,10.0,83,-99.99,,,-99.99,,2013-01-20 20:42:00,
2013-01-20 11:52:00,32.0,27.0,-100.00,WNW,298,0.0,6.0,83,-99.99,,,-99.99,,2013-01-20 20:52:00,
2013-01-20 12:03:00,32.0,27.0,-100.00,WNW,298,0.0,6.0,83,-99.99,,,-99.99,,2013-01-20 21:03:00,
2013-01-20 12:12:00,32.0,27.0,-100.00,WNW,298,0.0,6.0,83,-99.99,,,-99.99,,2013-01-20 21:12:00,
2013-01-20 12:22:00,31.0,27.0,-100.00,North,351,1.0,5.0,86,-99.99,,,-99.99,,2013-01-20 21:22:00,
2013-01-20 12:33:00,30.0,27.0,-100.00,ENE,60,2.0,7.0,89,-99.99,,,-99.99,,2013-01-20 21:33:00,
2013-01-20 12:43:00,30.0,27.0,-100.00,ENE,60,2.0,7.0,89,-99.99,,,-99.99,,2013-01-20 21:43:00,
2013-01-20 12:52:00,30.0,28.0,-100.00,ENE,68,2.0,7.0,94,-99.99,,,-99.99,,2013-01-20 21:52:00,
2013-01-20 13:02:00,30.0,28.0,-100.00,ENE,68,2.0,7.0,94,-99.99,,,-99.99,,2013-01-20 22:02:00,
2013-01-20 13:12:00,30.0,28.0,-100.00,ENE,68,2.0,7.0,94,-99.99,,,-99.99,,2013-01-20 22:12:00,
2013-01-20 13:22:00,30.0,28.0,-100.00,NE,34,1.0,6.0,94,-99.99,,,-99.99,,2013-01-20 22:22:00,
2013-01-20 13:33:00,30.0,29.0,-100.00,North,357,0.0,3.0,97,-99.99,,,-99.99,,2013-01-20 22:33:00,
2013-01-20 13:42:00,30.0,29.0,-100.00,North,357,0.0,3.0,97,-99.99,,,-99.99,,2013-01-20 22:42:00,
2013-01-20 13:52:00,30.0,30.0,-100.00,NNE,26,2.0,4.0,99,-99.99,,,-99.99,,2013-01-20 22:52:00,
2013-01-20 14:03:00,30.0,30.0,-100.00,North,355,0.0,5.0,99,-99.99,,,-99.99,,2013-01-20 23:03:00,
2013-01-20 14:12:00,30.0,30.0,-100.00,North,355,0.0,5.0,99,-99.99,,,-99.99,,2013-01-20 23:12:00,
2013-01-20 14:22:00,30.0,30.0,-100.00,NE,40,0.0,2.0,99,-99.99,,,-99.99,,2013-01-20 23:22:00,
2013-01-20 14:33:00,30.0,30.0,-100.00,SSW,205,0.0,1.0,99,-99.99,,,-99.99,,2013-01-20 23:33:00,
2013-01-20 14:42:00,30.0,30.0,-100.00,SSW,205,0.0,1.0,99,-99.99,,,-99.99,,2013-01-20 23:42:00,
2013-01-20 14:52:00,30.0,30.0,-100.00,East,82,1.0,3.0,99,-99.99,,,-99.99,,2013-01-20 23:52:00,
2013-01-20 15:02:00,30.0,30.0,-100.00,NE,56,0.0,1.0,99,-99.99,,,-99.99,,2013-01-21 00:02:00,
2013-01-20 15:12:00,30.0,30.0,-100.00,NE,56,0.0,1.0,99,-99.99,,,-99.99,,2013-01-21 00:12:00,
2013-01-20 15:22:00,30.0,30.0,-100.00,East,85,0.0,2.0,99,-99.99,,,-99.99,,2013-01-21 00:22:00,
2013-01-20 15:33:00,31.0,31.0,-100.00,NE,48,4.0,6.0,99,-99.99,,,-99.99,,2013-01-21 00:33:00,
2013-01-20 15:42:00,31.0,31.0,-100.00,NE,48,4.0,6.0,99,-99.99,,,-99.99,,2013-01-21 00:42:00,
2013-01-20 15:53:00,32.0,32.0,-100.00,NE,49,2.0,6.0,99,-99.99,,,-99.99,,2013-01-21 00:53:00,
2013-01-20 16:02:00,31.0,31.0,-100.00,NE,48,4.0,7.0,99,-99.99,,,-99.99,,2013-01-21 01:02:00,
2013-01-20 16:12:00,31.0,31.0,-100.00,NE,48,4.0,7.0,99,-99.99,,,-99.99,,2013-01-21 01:12:00,
2013-01-20 16:22:00,32.0,32.0,-100.00,NE,56,5.0,0.0,100,-99.99,,,-99.99,,2013-01-21 01:22:00,
2013-01-20 16:32:00,31.0,31.0,-100.00,ENE,59,5.0,9.0,99,-99.99,,,-99.99,,2013-01-21 01:32:00,
2013-01-20 16:43:00,31.0,31.0,-100.00,ENE,59,5.0,9.0,99,-99.99,,,-99.99,,2013-01-21 01:43:00,
2013-01-20 16:52:00,31.0,31.0,-100.00,SE,141,2.0,7.0,98,-99.99,,,-99.99,,2013-01-21 01:52:00,
2013-01-20 17:02:00,32.0,28.0,-100.00,ESE,123,1.0,7.0,85,-99.99,,,-99.99,,2013-01-21 02:02:00,
2013-01-20 17:12:00,32.0,28.0,-100.00,ESE,123,1.0,7.0,85,-99.99,,,-99.99,,2013-01-21 02:12:00,
2013-01-20 17:22:00,33.0,29.0,-100.00,SE,135,6.0,14.0,84,-99.99,,,-99.99,,2013-01-21 02:22:00,
2013-01-20 17:33:00,33.0,26.0,-100.00,South,186,5.0,12.0,76,-99.99,,,-99.99,,2013-01-21 02:33:00,
2013-01-20 17:42:00,33.0,26.0,-100.00,South,186,5.0,12.0,76,-99.99,,,-99.99,,2013-01-21 02:42:00,
2013-01-20 17:52:00,33.0,27.0,-100.00,South,169,5.0,18.0,77,-99.99,,,-99.99,,2013-01-21 02:52:00,
2013-01-20 18:02:00,34.0,25.0,-100.00,SSE,163,4.0,14.0,68,-99.99,,,-99.99,,2013-01-21 03:02:00,
2013-01-20 18:12:00,34.0,25.0,-100.00,SSE,163,4.0,14.0,68,-99.99,,,-99.99,,2013-01-21 03:12:00,
2013-01-20 18:23:00,34.0,25.0,-100.00,South,188,7.0,17.0,69,-99.99,,,-99.99,,2013-01-21 03:23:00,
2013-01-20 18:33:00,33.0,28.0,-100.00,SW,221,3.0,5.0,80,-99.99,,,-99.99,,2013-01-21 03:33:00,
2013-01-20 18:43:00,33.0,28.0,-100.00,SW,221,3.0,5.0,80,-99.99,,,-99.99,,2013-01-21 03:43:00,
2013-01-20 18:52:00,32.0,26.0,-100.00,South,179,4.0,10.0,79,-99.99,,,-99.99,,2013-01-21 03:52:00,
2013-01-20 19:02:00,32.0,26.0,-100.00,South,179,4.0,10.0,79,-99.99,,,-99.99,,2013-01-21 04:02:00,
2013-01-20 19:12:00,32.0,26.0,-100.00,South,179,4.0,10.0,79,-99.99,,,-99.99,,2013-01-21 04:12:00,
2013-01-20 19:22:00,34.0,25.0,-100.00,SE,143,7.0,13.0,68,-99.99,,,-99.99,,2013-01-21 04:22:00,
2013-01-20 19:32:00,34.0,25.0,-100.00,SE,143,5.0,18.0,68,-99.99,,,-99.99,,2013-01-21 04:32:00,
2013-01-20 19:42:00,34.0,25.0,-100.00,SE,143,5.0,18.0,68,-99.99,,,-99.99,,2013-01-21 04:42:00,
2013-01-20 19:52:00,34.0,24.0,-100.00,SE,142,5.0,18.0,67,-99.99,,,-99.99,,2013-01-21 04:52:00,
2013-01-20 20:03:00,34.0,24.0,-100.00,East,97,4.0,17.0,67,-99.99,,,-99.99,,2013-01-21 05:03:00,
2013-01-20 20:12:00,34.0,24.0,-100.00,East,97,4.0,17.0,67,-99.99,,,-99.99,,2013-01-21 05:12:00,
2013-01-20 20:22:00,32.0,24.0,-100.00,East,89,6.0,9.0,73,-99.99,,,-99.99,,2013-01-21 05:22:00,
2013-01-20 20:33:00,32.0,24.0,-100.00,East,89,6.0,9.0,73,-99.99,,,-99.99,,2013-01-21 05:33:00,
2013-01-20 20:42:00,32.0,24.0,-100.00,East,89,6.0,9.0,73,-99.99,,,-99.99,,2013-01-21 05:42:00,
2013-01-20 20:52:00,32.0,24.0,-100.00,ENE,75,6.0,11.0,72,-99.99,,,-99.99,,2013-01-21 05:52:00,
2013-01-20 21:02:00,32.0,24.0,-100.00,ENE,75,6.0,11.0,72,-99.99,,,-99.99,,2013-01-21 06:02:00,
2013-01-20 21:12:00,32.0,24.0,-100.00,ENE,75,6.0,11.0,72,-99.99,,,-99.99,,2013-01-21 06:12:00,
2013-01-20 21:22:00,32.0,23.0,-100.00,SE,138,4.0,11.0,69,-99.99,,,-99.99,,2013-01-21 06:22:00,
2013-01-20 21:33:00,32.0,25.0,-100.00,SSW,192,1.0,4.0,76,-99.99,,,-99.99,,2013-01-21 06:33:00,
2013-01-20 21:43:00,32.0,25.0,-100.00,SSW,192,1.0,4.0,76,-99.99,,,-99.99,,2013-01-21 06:43:00,
2013-01-20 21:52:00,33.0,24.0,-100.00,SSE,163,3.0,8.0,70,-99.99,,,-99.99,,2013-01-21 06:52:00,
2013-01-20 22:02:00,32.0,26.0,-100.00,West,276,0.0,3.0,77,-99.99,,,-99.99,,2013-01-21 07:02:00,
2013-01-20 22:12:00,32.0,26.0,-100.00,West,276,0.0,3.0,77,-99.99,,,-99.99,,2013-01-21 07:12:00,
2013-01-20 22:22:00,32.0,25.0,-100.00,ESE,113,2.0,7.0,74,-99.99,,,-99.99,,2013-01-21 07:22:00,
2013-01-20 22:33:00,32.0,25.0,-100.00,ESE,113,2.0,7.0,74,-99.99,,,-99.99,,2013-01-21 07:33:00,
2013-01-20 22:42:00,32.0,25.0,-100.00,ESE,113,2.0,7.0,74,-99.99,,,-99.99,,2013-01-21 07:42:00,
2013-01-20 22:52:00,32.0,26.0,-100.00,SSE,157,0.0,5.0,77,-99.99,,,-99.99,,2013-01-21 07:52:00,
2013-01-20 23:02:00,30.0,26.0,-100.00,South,188,2.0,6.0,84,-99.99,,,-99.99,,2013-01-21 08:02:00,
2013-01-20 23:13:00,30.0,26.0,-100.00,South,188,2.0,6.0,84,-99.99,,,-99.99,,2013-01-21 08:13:00,
2013-01-20 23:22:00,30.0,26.0,-100.00,South,188,2.0,6.0,84,-99.99,,,-99.99,,2013-01-21 08:22:00,
2013-01-20 23:32:00,32.0,25.0,-100.00,ESE,113,4.0,8.0,75,-99.99,,,-99.99,,2013-01-21 08:32:00,
2013-01-20 23:43:00,32.0,25.0,-100.00,ESE,113,4.0,8.0,75,-99.99,,,-99.99,,2013-01-21 08:43:00,
2013-01-20 23:53:00,33.0,25.0,-100.00,ESE,122,2.0,8.0,71,-99.99,,,-99.99,,2013-01-21 08:53:00,